Time;durP1;ratioP1;P1;durP2;ratioP2;P2;SDS_P1;SDS_P2;PMS_P1;PMS_P2;Temp;Humidity;BMP_temperature;BMP_pressure;BME280_temperature;BME280_humidity;BME280_pressure;Samples;Min_cycle;Max_cycle;Signal;HPM_P1;HPM_P2
2022/04/23 00:01:06;;;;;;;22.00;17.98;;;27.00;99.90;;;;;;4157581;28;20050;-72
2022/04/23 00:03:21;;;;;;;26.45;19.48;;;27.00;99.90;;;;;;4157287;28;20045;-73
2022/04/23 00:05:28;;;;;;;22.20;18.20;;;27.00;99.90;;;;;;4156273;28;20057;-72
2022/04/23 00:07:37;;;;;;;23.83;19.33;;;27.10;99.90;;;;;;4157961;28;20124;-72
2022/04/23 00:09:50;;;;;;;21.98;18.83;;;27.10;99.90;;;;;;4132953;28;20122;-72
2022/04/23 00:12:04;;;;;;;23.85;19.05;;;27.10;99.90;;;;;;4155523;28;20141;-70
2022/04/23 00:14:11;;;;;;;23.45;19.05;;;27.10;99.90;;;;;;4161030;28;20120;-72
2022/04/23 00:16:24;;;;;;;21.55;18.92;;;27.20;99.90;;;;;;4152353;28;20122;-72
2022/04/23 00:18:44;;;;;;;21.38;18.42;;;27.20;99.90;;;;;;4152829;28;20053;-72
2022/04/23 00:21:00;;;;;;;21.77;17.30;;;27.20;99.90;;;;;;4152879;28;20081;-71
2022/04/23 00:23:15;;;;;;;20.98;17.08;;;27.20;99.90;;;;;;4158577;28;20037;-71
2022/04/23 00:25:40;;;;;;;;;;;27.30;99.90;;;;;;4154434;28;20049;-70
2022/04/23 00:27:54;;;;;;;24.60;17.30;;;27.40;99.90;;;;;;4155129;28;19929;-71
2022/04/23 00:30:06;;;;;;;21.35;17.73;;;27.40;99.90;;;;;;4154925;28;20050;-68
2022/04/23 00:32:18;;;;;;;22.02;17.63;;;27.40;99.90;;;;;;4147756;28;20041;-68
2022/04/23 00:34:30;;;;;;;22.23;17.65;;;27.40;99.90;;;;;;4151261;28;20045;-70
2022/04/23 00:36:36;;;;;;;22.35;18.30;;;27.50;99.90;;;;;;4153365;28;20045;-71
2022/04/23 00:38:49;;;;;;;23.70;17.73;;;27.50;99.90;;;;;;4153658;28;20065;-71
2022/04/23 00:40:56;;;;;;;21.38;18.15;;;27.60;99.90;;;;;;4155435;28;20113;-71
2022/04/23 00:43:09;;;;;;;20.40;16.38;;;27.60;99.90;;;;;;4155874;28;20049;-70
2022/04/23 00:45:20;;;;;;;22.55;19.38;;;27.60;99.90;;;;;;4169833;28;20045;-71
2022/04/23 00:47:38;;;;;;;22.58;18.23;;;27.70;99.90;;;;;;4154351;28;20149;-70
2022/04/23 00:49:48;;;;;;;19.33;17.27;;;27.70;99.90;;;;;;4163197;28;20557;-71
2022/04/23 00:51:58;;;;;;;20.77;17.52;;;27.80;99.90;;;;;;4158137;28;20105;-70
2022/04/23 00:54:07;;;;;;;22.30;17.13;;;27.70;99.90;;;;;;4159934;28;20122;-71
2022/04/23 00:56:14;;;;;;;19.35;17.17;;;27.80;99.90;;;;;;4159867;28;20042;-68
2022/04/23 00:58:36;;;;;;;24.67;17.90;;;27.90;99.90;;;;;;4155700;28;20042;-70
2022/04/23 01:00:50;;;;;;;24.73;16.83;;;27.90;99.90;;;;;;4151921;28;20104;-69
2022/04/23 01:03:16;;;;;;;19.95;16.83;;;27.90;99.90;;;;;;4145399;28;20070;-69
2022/04/23 01:05:27;;;;;;;18.40;15.90;;;28.00;99.90;;;;;;4159300;28;20045;-70
2022/04/23 01:07:44;;;;;;;19.52;15.52;;;28.00;99.90;;;;;;4152490;28;20784;-70
2022/04/23 01:10:11;;;;;;;19.77;16.23;;;28.00;99.90;;;;;;4151955;28;20053;-71
2022/04/23 01:12:24;;;;;;;20.33;14.77;;;28.10;99.90;;;;;;4165522;28;20041;-71
2022/04/23 01:14:55;;;;;;;22.63;17.38;;;28.20;99.90;;;;;;4154665;28;20102;-71
2022/04/23 01:17:07;;;;;;;22.00;17.70;;;28.20;99.90;;;;;;4146428;28;20053;-72
2022/04/23 01:19:19;;;;;;;21.38;17.17;;;28.20;99.90;;;;;;4147402;28;20103;-71
2022/04/23 01:21:31;;;;;;;22.45;17.02;;;28.10;99.90;;;;;;4151807;28;20037;-68
2022/04/23 01:23:53;;;;;;;19.70;17.00;;;28.20;99.90;;;;;;4163447;28;20133;-70
2022/04/23 01:26:04;;;;;;;23.67;17.42;;;28.30;99.90;;;;;;4160335;28;20071;-70
2022/04/23 01:28:24;;;;;;;18.90;15.02;;;28.30;99.90;;;;;;4157453;28;22273;-72
2022/04/23 01:30:34;;;;;;;18.90;16.38;;;28.40;99.90;;;;;;4151129;28;20041;-70
2022/04/23 01:32:46;;;;;;;18.45;15.50;;;28.50;99.90;;;;;;4155454;28;20049;-70
2022/04/23 01:35:00;;;;;;;20.13;14.68;;;28.60;99.90;;;;;;4174365;28;20099;-70
2022/04/23 01:37:12;;;;;;;19.42;14.98;;;28.60;99.90;;;;;;4157528;28;20045;-70
2022/04/23 01:39:26;;;;;;;16.05;14.02;;;28.60;99.90;;;;;;4155660;28;20052;-70
2022/04/23 01:41:40;;;;;;;16.98;13.43;;;28.70;99.90;;;;;;4167626;28;20057;-69
2022/04/23 01:43:47;;;;;;;21.55;15.20;;;28.70;99.90;;;;;;4172349;28;20085;-71
2022/04/23 01:46:05;;;;;;;19.25;14.35;;;28.80;99.90;;;;;;4155911;28;20042;-71
2022/04/23 01:48:30;;;;;;;20.95;15.20;;;28.80;99.90;;;;;;4154160;28;20735;-71
2022/04/23 01:50:56;;;;;;;18.38;14.05;;;28.90;99.90;;;;;;4174567;28;20053;-70
2022/04/23 01:53:25;;;;;;;21.75;15.18;;;28.90;99.90;;;;;;4157080;28;20069;-70
2022/04/23 01:55:39;;;;;;;15.55;12.50;;;29.00;99.90;;;;;;4156670;28;20049;-69
2022/04/23 01:57:50;;;;;;;18.23;15.35;;;29.00;99.90;;;;;;4139468;28;20049;-69
2022/04/23 01:59:56;;;;;;;17.25;14.55;;;29.10;99.90;;;;;;4151431;28;20057;-70
2022/04/23 02:02:12;;;;;;;17.63;14.75;;;29.10;99.90;;;;;;4156374;28;20124;-70
2022/04/23 02:04:28;;;;;;;22.30;13.70;;;29.20;99.90;;;;;;4137794;28;20139;-70
2022/04/23 02:06:38;;;;;;;14.95;13.15;;;29.20;99.90;;;;;;4177689;28;20065;-70
2022/04/23 02:08:57;;;;;;;20.95;14.82;;;29.20;99.90;;;;;;4155410;28;20751;-69
2022/04/23 02:11:23;;;;;;;19.10;14.63;;;29.30;99.90;;;;;;4160640;28;20046;-68
2022/04/23 02:13:35;;;;;;;20.13;13.65;;;29.30;99.90;;;;;;4156617;28;20442;-72
2022/04/23 02:15:52;;;;;;;21.58;13.15;;;29.30;99.90;;;;;;4183654;28;20087;-73
2022/04/23 02:18:17;;;;;;;17.40;13.02;;;29.30;99.90;;;;;;4140197;28;20085;-73
2022/04/23 02:20:36;;;;;;;18.80;13.27;;;29.30;99.90;;;;;;4180627;28;20049;-74
2022/04/23 02:22:55;;;;;;;14.05;12.40;;;29.40;99.90;;;;;;4162825;28;20376;-73
2022/04/23 02:25:20;;;;;;;15.98;12.35;;;29.50;99.90;;;;;;4160771;28;20072;-72
2022/04/23 02:27:49;;;;;;;18.25;12.65;;;29.50;99.90;;;;;;4167596;28;21195;-72
2022/04/23 02:30:21;;;;;;;15.00;12.90;;;29.60;99.90;;;;;;4152075;28;20050;-74
2022/04/23 02:32:33;;;;;;;16.85;12.77;;;29.70;99.90;;;;;;4158484;28;20504;-74
2022/04/23 02:34:45;;;;;;;16.42;13.00;;;29.80;99.90;;;;;;4164132;28;20046;-71
2022/04/23 02:37:09;;;;;;;22.85;14.27;;;29.70;99.90;;;;;;4161461;28;20590;-70
2022/04/23 02:39:36;;;;;;;17.10;12.60;;;29.80;99.90;;;;;;4167307;28;20547;-71
2022/04/23 02:41:42;;;;;;;19.30;12.35;;;29.80;99.90;;;;;;4171348;28;20052;-73
2022/04/23 02:43:51;;;;;;;22.02;12.98;;;29.90;99.90;;;;;;4159876;28;20071;-69
2022/04/23 02:46:15;;;;;;;15.73;12.95;;;30.00;99.90;;;;;;4171030;28;20087;-73
2022/04/23 02:48:38;;;;;;;16.40;13.10;;;30.00;99.90;;;;;;4161866;28;20042;-72
2022/04/23 02:50:43;;;;;;;16.42;12.68;;;30.00;99.90;;;;;;4165205;28;20068;-73
2022/04/23 02:52:53;;;;;;;17.08;13.43;;;30.10;99.90;;;;;;4155454;28;20068;-72
2022/04/23 02:54:59;;;;;;;17.50;12.98;;;30.20;99.90;;;;;;4158873;28;20072;-74
2022/04/23 02:57:18;;;;;;;17.05;12.75;;;30.30;99.90;;;;;;4162904;28;20049;-71
2022/04/23 02:59:31;;;;;;;19.00;13.70;;;30.30;99.90;;;;;;4160436;28;20388;-70
2022/04/23 03:01:45;;;;;;;17.30;12.55;;;30.40;99.90;;;;;;4153558;28;20060;-70
2022/04/23 03:03:59;;;;;;;15.73;12.43;;;30.40;99.90;;;;;;4154123;28;20049;-72
2022/04/23 03:06:22;;;;;;;19.77;13.75;;;30.40;99.90;;;;;;4154076;28;20045;-73
2022/04/23 03:08:41;;;;;;;16.50;13.38;;;30.50;99.70;;;;;;4161391;28;20037;-73
2022/04/23 03:11:06;;;;;;;17.98;12.77;;;30.40;99.50;;;;;;4157538;28;20065;-73
2022/04/23 03:13:15;;;;;;;17.42;13.95;;;30.40;98.90;;;;;;4145202;28;20046;-71
2022/04/23 03:15:26;;;;;;;16.25;12.85;;;30.40;99.10;;;;;;4158164;28;20587;-71
2022/04/23 03:17:50;;;;;;;14.18;12.65;;;30.50;99.00;;;;;;4165282;28;20049;-71
2022/04/23 03:20:15;;;;;;;13.98;12.23;;;30.50;99.30;;;;;;4161218;28;20052;-71
2022/04/23 03:22:44;;;;;;;14.20;11.93;;;30.70;99.00;;;;;;4167374;28;20109;-69
2022/04/23 03:25:04;;;;;;;17.90;12.18;;;30.70;98.10;;;;;;4165201;28;20046;-70
2022/04/23 03:27:17;;;;;;;14.63;12.60;;;30.80;98.30;;;;;;4160694;28;20550;-72
2022/04/23 03:29:44;;;;;;;16.08;12.27;;;30.90;98.60;;;;;;4172796;28;20109;-71
2022/04/23 03:32:10;;;;;;;18.73;13.10;;;31.00;97.80;;;;;;4158862;28;20042;-71
2022/04/23 03:34:37;;;;;;;19.20;12.70;;;31.10;97.80;;;;;;4124525;28;20100;-72
2022/04/23 03:36:55;;;;;;;20.00;13.68;;;31.10;97.30;;;;;;4169509;28;20049;-70
2022/04/23 03:39:20;;;;;;;16.38;12.88;;;31.10;97.00;;;;;;4154974;28;20082;-72
2022/04/23 03:41:48;;;;;;;20.92;12.65;;;31.10;96.40;;;;;;4171193;28;20057;-72
2022/04/23 03:44:14;;;;;;;18.55;11.80;;;31.10;96.50;;;;;;4168199;28;20556;-71
2022/04/23 03:46:39;;;;;;;23.80;13.55;;;31.10;96.00;;;;;;4161294;28;20042;-72
2022/04/23 03:49:04;;;;;;;18.30;13.57;;;31.20;96.60;;;;;;4162891;28;20084;-72
2022/04/23 03:51:28;;;;;;;18.77;13.43;;;31.30;96.60;;;;;;4166408;28;20049;-72
2022/04/23 03:53:56;;;;;;;19.00;12.35;;;31.40;96.50;;;;;;4172836;28;20156;-72
2022/04/23 03:56:25;;;;;;;15.73;12.30;;;31.50;96.80;;;;;;4160526;28;20060;-70
2022/04/23 03:58:51;;;;;;;16.48;12.70;;;31.50;95.70;;;;;;4152320;28;20064;-71
2022/04/23 04:00:58;;;;;;;15.35;12.13;;;31.50;95.60;;;;;;4165497;28;20361;-71
2022/04/23 04:03:15;;;;;;;15.25;11.93;;;31.50;95.80;;;;;;4164010;28;20105;-71
2022/04/23 04:05:31;;;;;;;21.80;12.68;;;31.60;96.30;;;;;;4167859;28;20050;-70
2022/04/23 04:07:43;;;;;;;14.07;11.93;;;31.70;96.60;;;;;;4164731;28;20068;-72
2022/04/23 04:10:11;;;;;;;14.48;12.02;;;31.70;96.70;;;;;;4147264;28;20137;-72
2022/04/23 04:12:35;;;;;;;15.40;11.70;;;31.80;96.60;;;;;;4163284;28;20531;-71
2022/04/23 04:15:00;;;;;;;17.90;11.45;;;32.00;96.60;;;;;;4160735;28;20068;-71
2022/04/23 04:17:25;;;;;;;16.52;12.30;;;32.10;96.50;;;;;;4154003;28;20081;-71
2022/04/23 04:19:52;;;;;;;22.33;11.77;;;32.20;96.40;;;;;;4153885;28;20799;-71
2022/04/23 04:22:17;;;;;;;16.52;12.52;;;32.30;96.30;;;;;;4146848;28;20517;-70
2022/04/23 04:24:44;;;;;;;17.15;12.45;;;32.40;96.50;;;;;;4152470;28;20054;-70
2022/04/23 04:27:11;;;;;;;17.15;11.68;;;32.30;96.50;;;;;;4158282;28;20053;-70
2022/04/23 04:29:34;;;;;;;14.88;13.23;;;32.30;96.30;;;;;;4154099;28;20041;-70
2022/04/23 04:32:00;;;;;;;21.70;12.60;;;32.50;95.40;;;;;;4152921;28;20077;-70
2022/04/23 04:34:30;;;;;;;16.48;11.35;;;32.60;95.10;;;;;;4160680;28;20128;-71
2022/04/23 04:36:49;;;;;;;15.25;11.45;;;32.60;95.30;;;;;;4167100;28;20065;-70
2022/04/23 04:39:14;;;;;;;15.10;12.27;;;32.70;95.50;;;;;;4151256;28;20052;-71
2022/04/23 04:41:40;;;;;;;21.92;12.85;;;32.60;95.50;;;;;;4175238;28;20060;-72
2022/04/23 04:44:04;;;;;;;14.40;12.55;;;32.40;95.00;;;;;;4165424;28;20507;-71
2022/04/23 04:46:31;;;;;;;16.50;12.18;;;32.50;94.90;;;;;;4136822;28;20460;-71
2022/04/23 04:48:44;;;;;;;14.73;11.30;;;32.50;94.50;;;;;;4162530;28;20037;-71
2022/04/23 04:51:09;;;;;;;16.27;12.32;;;32.50;94.00;;;;;;4150590;28;20057;-71
2022/04/23 04:53:36;;;;;;;15.35;11.15;;;32.50;94.50;;;;;;4173891;28;20045;-70
2022/04/23 04:56:03;;;;;;;14.02;11.27;;;32.60;94.50;;;;;;4161149;28;20132;-71
2022/04/23 04:58:27;;;;;;;15.45;11.52;;;32.80;94.30;;;;;;4152733;28;20038;-72
2022/04/23 05:00:34;;;;;;;12.45;10.18;;;32.90;94.00;;;;;;4132586;28;20054;-71
2022/04/23 05:02:39;;;;;;;15.32;11.05;;;33.00;94.10;;;;;;4150110;28;20045;-71
2022/04/23 05:04:44;;;;;;;15.30;11.48;;;33.10;94.20;;;;;;4157589;28;20272;-71
2022/04/23 05:06:50;;;;;;;15.48;11.77;;;33.10;93.60;;;;;;4126725;28;20128;-71
2022/04/23 05:09:15;;;;;;;15.00;11.63;;;33.20;93.40;;;;;;4158955;28;20168;-71
2022/04/23 05:11:38;;;;;;;15.95;10.77;;;33.20;93.30;;;;;;4159749;28;20427;-71
2022/04/23 05:14:04;;;;;;;15.13;11.18;;;33.20;93.30;;;;;;4157833;28;20051;-70
2022/04/23 05:16:31;;;;;;;15.60;11.27;;;33.30;92.80;;;;;;4175911;28;20074;-71
2022/04/23 05:18:58;;;;;;;18.80;11.55;;;33.30;92.60;;;;;;4189189;28;20060;-70
2022/04/23 05:21:05;;;;;;;15.85;10.07;;;33.40;92.40;;;;;;4190875;28;20045;-71
2022/04/23 05:23:11;;;;;;;12.40;9.73;;;33.40;92.10;;;;;;4201668;28;20040;-70
2022/04/23 05:25:40;;;;;;;13.23;10.35;;;33.40;92.30;;;;;;4195122;28;20048;-70
2022/04/23 05:27:56;;;;;;;12.07;10.73;;;33.50;92.10;;;;;;4169115;28;20049;-71
2022/04/23 05:30:02;;;;;;;15.15;10.90;;;33.60;92.00;;;;;;4202435;28;20070;-71
2022/04/23 05:32:07;;;;;;;11.98;10.73;;;33.60;91.70;;;;;;4200655;28;20047;-71
2022/04/23 05:34:14;;;;;;;15.45;10.38;;;33.60;91.20;;;;;;4198135;28;20067;-70
2022/04/23 05:36:19;;;;;;;16.45;10.10;;;33.50;91.10;;;;;;4187013;28;20100;-70
2022/04/23 05:38:24;;;;;;;15.20;10.77;;;33.50;90.90;;;;;;4200294;28;20052;-71
2022/04/23 05:40:30;;;;;;;13.05;10.73;;;33.40;91.00;;;;;;4173731;28;20045;-71
2022/04/23 05:42:37;;;;;;;14.13;11.68;;;33.40;91.40;;;;;;4199775;28;20052;-70
2022/04/23 05:44:44;;;;;;;12.02;10.70;;;33.40;91.60;;;;;;4200717;28;20124;-70
2022/04/23 05:46:52;;;;;;;15.23;11.48;;;33.30;91.80;;;;;;4187421;28;20048;-70
2022/04/23 05:49:01;;;;;;;15.63;10.50;;;33.30;92.10;;;;;;4195812;28;20041;-70
2022/04/23 05:51:05;;;;;;;13.85;10.73;;;33.30;91.90;;;;;;4195875;28;20071;-70
2022/04/23 05:53:12;;;;;;;12.07;10.27;;;33.40;91.80;;;;;;4190364;28;20055;-69
2022/04/23 05:55:19;;;;;;;12.82;11.45;;;33.50;91.70;;;;;;4202629;28;20556;-69
2022/04/23 05:57:24;;;;;;;15.50;11.25;;;33.50;90.90;;;;;;4181534;28;20128;-72
2022/04/23 05:59:31;;;;;;;15.07;11.13;;;33.50;91.00;;;;;;4196514;28;20056;-70
2022/04/23 06:01:38;;;;;;;14.70;11.13;;;33.50;91.00;;;;;;4198212;28;20094;-71
2022/04/23 06:03:44;;;;;;;13.68;10.70;;;33.50;90.70;;;;;;4194663;28;20045;-70
2022/04/23 06:05:53;;;;;;;14.27;10.98;;;33.50;91.00;;;;;;4199350;28;20407;-69
2022/04/23 06:08:00;;;;;;;13.57;11.10;;;33.60;91.20;;;;;;4203019;28;20055;-70
2022/04/23 06:10:06;;;;;;;13.65;10.63;;;33.70;91.00;;;;;;4203517;28;20056;-71
2022/04/23 06:12:13;;;;;;;13.30;10.38;;;33.70;90.90;;;;;;4168481;28;20136;-69
2022/04/23 06:14:19;;;;;;;12.45;10.52;;;33.70;90.10;;;;;;4196693;28;20045;-70
2022/04/23 06:16:24;;;;;;;13.90;10.07;;;33.80;89.70;;;;;;4192746;28;20043;-70
2022/04/23 06:18:30;;;;;;;13.75;10.57;;;33.80;89.90;;;;;;4204952;28;20044;-71
2022/04/23 06:20:39;;;;;;;16.63;11.40;;;33.90;89.00;;;;;;4195575;28;20653;-68
2022/04/23 06:22:44;;;;;;;15.13;11.18;;;34.00;89.70;;;;;;4186640;28;20041;-72
2022/04/23 06:24:50;;;;;;;14.52;10.85;;;34.00;90.00;;;;;;4190718;28;20045;-70
2022/04/23 06:26:57;;;;;;;17.67;10.75;;;34.10;89.60;;;;;;4204204;28;20094;-73
2022/04/23 06:29:01;;;;;;;16.50;11.00;;;34.10;89.80;;;;;;4202380;28;20380;-71
2022/04/23 06:31:06;;;;;;;13.65;10.23;;;34.20;90.30;;;;;;4198173;28;20051;-69
2022/04/23 06:33:13;;;;;;;15.10;11.25;;;34.30;89.60;;;;;;4203476;28;20123;-69
2022/04/23 06:35:18;;;;;;;14.05;11.30;;;34.30;89.60;;;;;;4203127;28;20044;-69
2022/04/23 06:37:25;;;;;;;13.57;10.13;;;34.40;90.00;;;;;;4203677;28;20063;-69
2022/04/23 06:39:32;;;;;;;13.10;10.00;;;34.40;90.20;;;;;;4202304;28;20059;-69
2022/04/23 06:41:36;;;;;;;14.57;10.60;;;34.40;89.50;;;;;;4202292;28;20056;-69
2022/04/23 06:43:42;;;;;;;13.27;11.25;;;34.50;89.10;;;;;;4186717;28;20128;-69
2022/04/23 06:45:48;;;;;;;14.35;10.40;;;34.40;88.20;;;;;;4195268;28;20049;-71
2022/04/23 06:48:04;;;;;;;11.05;9.85;;;34.40;88.90;;;;;;4195940;28;20037;-71
2022/04/23 06:50:10;;;;;;;16.33;10.18;;;34.40;88.60;;;;;;4145526;28;20038;-70
2022/04/23 06:52:16;;;;;;;11.30;10.13;;;34.40;88.80;;;;;;4184913;28;20081;-70
2022/04/23 06:54:22;;;;;;;14.65;9.52;;;34.50;89.30;;;;;;4195577;28;20036;-70
2022/04/23 06:56:30;;;;;;;14.57;10.10;;;34.50;88.90;;;;;;4201319;28;20068;-69
2022/04/23 06:58:36;;;;;;;15.70;10.57;;;34.40;89.80;;;;;;4201899;28;20487;-70
2022/04/23 07:00:41;;;;;;;12.90;9.48;;;34.40;88.90;;;;;;4201963;28;20064;-70
2022/04/23 07:02:50;;;;;;;11.57;10.15;;;34.50;87.10;;;;;;4199492;28;20053;-70
2022/04/23 07:04:58;;;;;;;13.57;10.60;;;34.60;87.20;;;;;;4197267;28;20048;-71
2022/04/23 07:07:02;;;;;;;15.63;10.68;;;34.70;87.10;;;;;;4203079;28;20052;-71
2022/04/23 07:09:08;;;;;;;12.70;9.98;;;34.70;84.70;;;;;;4201166;28;20055;-71
2022/04/23 07:11:15;;;;;;;12.98;9.73;;;34.70;85.10;;;;;;4201512;28;20041;-70
2022/04/23 07:13:19;;;;;;;13.02;9.48;;;34.70;85.20;;;;;;4198176;28;20083;-70
2022/04/23 07:15:27;;;;;;;12.10;9.63;;;34.80;85.10;;;;;;4198735;28;20534;-72
2022/04/23 07:17:34;;;;;;;13.25;9.70;;;34.80;85.90;;;;;;4197439;28;20407;-72
2022/04/23 07:19:40;;;;;;;12.20;9.40;;;34.80;85.60;;;;;;4199309;28;20048;-70
2022/04/23 07:21:48;;;;;;;10.82;9.07;;;34.90;86.40;;;;;;4186516;28;20053;-71
2022/04/23 07:24:03;;;;;;;14.70;9.15;;;35.00;86.60;;;;;;4193241;28;20044;-71
2022/04/23 07:26:08;;;;;;;12.13;9.77;;;34.90;86.40;;;;;;4197222;28;20129;-71
2022/04/23 07:28:15;;;;;;;14.98;9.98;;;34.90;86.30;;;;;;4194092;28;20036;-72
2022/04/23 07:30:22;;;;;;;12.27;9.50;;;34.70;86.50;;;;;;4175157;28;20067;-71
2022/04/23 07:32:26;;;;;;;12.73;9.63;;;34.60;86.80;;;;;;4192059;28;20044;-71
2022/04/23 07:39:07;;;;;;;12.13;9.65;;;34.30;86.00;;;;;;4196735;28;20076;-71
2022/04/23 07:41:13;;;;;;;21.80;9.43;;;34.40;87.00;;;;;;4198453;28;20056;-71
2022/04/23 07:43:18;;;;;;;14.10;9.98;;;34.40;86.70;;;;;;4190976;28;20514;-71
2022/04/23 07:45:23;;;;;;;12.77;10.05;;;34.30;86.30;;;;;;4195555;28;20044;-72
2022/04/23 07:47:29;;;;;;;10.63;9.60;;;34.20;86.00;;;;;;4173943;28;20045;-72
2022/04/23 07:49:40;;;;;;;13.30;10.32;;;34.30;86.10;;;;;;4193811;28;20040;-70
2022/04/23 07:51:49;;;;;;;13.77;10.52;;;34.30;86.20;;;;;;4196080;28;20109;-70
2022/04/23 07:53:55;;;;;;;11.05;9.95;;;34.40;86.30;;;;;;4153292;28;20042;-69
2022/04/23 07:56:03;;;;;;;13.48;10.18;;;34.40;86.50;;;;;;4194472;28;20048;-70
2022/04/23 07:58:09;;;;;;;16.13;11.02;;;34.40;87.10;;;;;;4196036;28;20059;-71
2022/04/23 08:00:18;;;;;;;11.55;9.90;;;34.30;87.90;;;;;;4162057;28;20049;-71
2022/04/23 08:02:24;;;;;;;14.32;10.82;;;34.20;87.90;;;;;;4192696;28;20041;-70
2022/04/23 08:04:29;;;;;;;17.42;10.25;;;34.10;88.30;;;;;;4199919;28;20056;-72
2022/04/23 08:06:36;;;;;;;14.68;10.63;;;34.10;88.60;;;;;;4193127;28;20579;-71
2022/04/23 08:08:43;;;;;;;15.43;10.90;;;34.10;88.80;;;;;;4194649;28;20052;-71
2022/04/23 08:10:48;;;;;;;15.73;10.98;;;34.00;88.60;;;;;;4198353;28;20432;-71
2022/04/23 08:12:55;;;;;;;16.52;10.93;;;34.00;88.60;;;;;;4190298;28;20049;-71
2022/04/23 08:15:02;;;;;;;13.73;10.43;;;34.00;87.70;;;;;;4197655;28;20107;-69
2022/04/23 08:17:07;;;;;;;11.88;10.23;;;33.90;87.30;;;;;;4196736;28;20087;-69
2022/04/23 08:19:14;;;;;;;15.00;10.45;;;34.00;87.10;;;;;;4142688;28;20050;-72
2022/04/23 08:21:21;;;;;;;13.93;10.38;;;33.90;87.90;;;;;;4196690;28;20523;-72
2022/04/23 08:23:27;;;;;;;14.45;10.38;;;33.90;88.10;;;;;;4192782;28;20120;-71
2022/04/23 08:25:34;;;;;;;14.25;10.73;;;33.90;87.50;;;;;;4193396;28;20041;-68
2022/04/23 08:27:52;;;;;;;13.38;10.50;;;33.90;88.40;;;;;;4191263;28;20040;-71
2022/04/23 08:32:16;;;;;;;13.05;10.75;;;33.70;89.00;;;;;;4167478;28;20041;-69
2022/04/23 08:34:23;;;;;;;13.40;11.10;;;33.40;90.60;;;;;;4181757;28;20076;-70
2022/04/23 08:36:30;;;;;;;15.45;10.55;;;33.20;91.10;;;;;;4193515;28;20047;-70
2022/04/23 08:38:34;;;;;;;14.77;10.40;;;33.10;91.20;;;;;;4190596;28;20052;-73
2022/04/23 08:40:44;;;;;;;14.85;10.90;;;32.90;91.60;;;;;;4194122;28;20142;-70
2022/04/23 08:42:49;;;;;;;18.25;11.25;;;32.70;92.20;;;;;;4194595;28;20546;-70
2022/04/23 08:44:54;;;;;;;13.52;10.27;;;32.70;92.20;;;;;;4192507;28;20136;-71
2022/04/23 08:47:01;;;;;;;13.27;10.60;;;32.70;92.10;;;;;;4192817;28;20053;-70
2022/04/23 08:49:16;;;;;;;11.57;10.07;;;32.70;91.90;;;;;;4194229;28;20063;-71
2022/04/23 08:51:23;;;;;;;13.32;11.00;;;32.80;91.70;;;;;;4183468;28;20045;-70
2022/04/23 08:53:28;;;;;;;14.98;11.85;;;32.90;91.60;;;;;;4193248;28;20041;-69
2022/04/23 08:55:37;;;;;;;19.27;12.80;;;32.90;91.60;;;;;;4196204;28;20045;-70
2022/04/23 08:57:43;;;;;;;19.55;11.65;;;32.90;91.70;;;;;;4194098;28;20075;-70
2022/04/23 08:59:53;;;;;;;16.63;11.70;;;33.00;92.00;;;;;;4198779;28;20048;-70
2022/04/23 09:01:57;;;;;;;16.02;11.70;;;33.10;91.90;;;;;;4195481;28;20044;-71
2022/04/23 09:04:06;;;;;;;16.95;11.60;;;33.10;91.60;;;;;;4198061;28;20041;-71
2022/04/23 09:06:12;;;;;;;12.50;11.20;;;33.10;91.60;;;;;;4200177;28;20098;-70
2022/04/23 09:08:17;;;;;;;16.10;11.35;;;33.10;91.60;;;;;;4184263;28;20045;-70
2022/04/23 09:10:43;;;;;;;14.82;11.52;;;33.20;91.70;;;;;;4156931;28;20072;-70
2022/04/23 09:12:56;;;;;;;17.02;11.48;;;33.10;91.30;;;;;;4199718;28;20096;-69
2022/04/23 09:23:39;;;;;;;13.88;11.32;;;33.00;91.40;;;;;;4200871;28;20036;-69
2022/04/23 09:24:30;;;;;;;18.00;11.68;;;33.00;91.90;;;;;;4164396;28;20049;-67
2022/04/23 09:26:39;;;;;;;15.10;11.32;;;33.00;91.70;;;;;;4183028;28;20037;-68
2022/04/23 09:28:48;;;;;;;16.38;11.73;;;33.00;91.60;;;;;;4195238;28;20075;-68
2022/04/23 09:30:55;;;;;;;15.80;11.57;;;33.00;91.40;;;;;;4201637;28;20064;-68
2022/04/23 09:33:02;;;;;;;14.57;11.80;;;32.80;91.40;;;;;;4200014;28;20048;-68
2022/04/23 09:35:11;;;;;;;18.00;12.13;;;32.90;91.70;;;;;;4198489;28;20044;-68
2022/04/23 09:38:11;;;;;;;14.65;11.63;;;32.90;91.80;;;;;;4198088;28;20051;-67
2022/04/23 09:39:55;;;;;;;15.20;11.18;;;32.90;91.80;;;;;;4198494;28;20148;-68
2022/04/23 09:42:12;;;;;;;13.10;11.60;;;32.70;91.80;;;;;;4201820;28;20037;-69
2022/04/23 09:44:20;;;;;;;20.63;12.18;;;32.70;92.00;;;;;;4198777;28;20047;-68
2022/04/23 09:46:26;;;;;;;15.85;12.05;;;32.70;92.20;;;;;;4177844;28;20112;-68
2022/04/23 09:49:03;;;;;;;22.63;12.18;;;32.70;92.20;;;;;;4197802;28;20075;-70
2022/04/23 09:51:24;;;;;;;13.65;11.82;;;32.60;92.20;;;;;;4196432;28;20056;-70
2022/04/23 09:53:31;;;;;;;15.23;11.48;;;32.50;92.30;;;;;;4192584;28;20106;-70
2022/04/23 09:55:35;;;;;;;15.02;12.23;;;32.50;92.40;;;;;;4197587;28;20515;-69
2022/04/23 09:57:40;;;;;;;17.13;12.18;;;32.50;92.50;;;;;;4200078;28;20462;-71
2022/04/23 09:59:46;;;;;;;17.98;11.35;;;32.50;92.50;;;;;;4199367;28;20033;-70
2022/04/23 10:01:51;;;;;;;14.93;12.07;;;32.40;92.60;;;;;;4199227;28;20049;-69
2022/04/23 10:03:58;;;;;;;15.65;11.98;;;32.40;92.50;;;;;;4200054;28;20064;-67
2022/04/23 10:06:05;;;;;;;16.00;12.77;;;32.40;92.60;;;;;;4200535;28;20451;-69
2022/04/23 10:08:11;;;;;;;15.90;11.98;;;32.40;92.80;;;;;;4182347;28;20083;-69
2022/04/23 10:10:18;;;;;;;20.42;12.10;;;32.40;92.70;;;;;;4200641;28;20108;-71
2022/04/23 10:12:24;;;;;;;17.40;12.38;;;32.30;92.80;;;;;;4201106;28;20036;-70
2022/04/23 10:14:30;;;;;;;15.25;11.88;;;32.30;92.70;;;;;;4201171;28;20048;-70
2022/04/23 10:16:41;;;;;;;14.80;11.90;;;32.30;92.90;;;;;;4185311;28;20083;-70
2022/04/23 10:18:45;;;;;;;15.50;11.82;;;32.30;93.00;;;;;;4196575;28;20048;-72
2022/04/23 10:21:01;;;;;;;20.90;14.05;;;32.30;93.00;;;;;;4194242;28;20060;-72
2022/04/23 10:23:23;;;;;;;16.10;12.73;;;32.30;93.10;;;;;;4193327;28;20119;-72
2022/04/23 10:25:51;;;;;;;17.50;12.35;;;32.20;93.20;;;;;;4182944;28;20047;-73
2022/04/23 10:27:56;;;;;;;18.90;12.73;;;32.20;93.20;;;;;;4174894;28;20056;-72
2022/04/23 10:30:04;;;;;;;18.52;12.73;;;32.10;93.30;;;;;;4190899;28;20037;-71
2022/04/23 10:32:38;;;;;;;14.45;12.07;;;32.10;93.50;;;;;;4197249;28;20100;-71
2022/04/23 10:34:43;;;;;;;14.77;12.13;;;32.10;93.50;;;;;;4202870;28;20074;-74
2022/04/23 10:37:05;;;;;;;18.38;12.90;;;32.10;93.60;;;;;;4168823;28;20045;-72
2022/04/23 10:39:24;;;;;;;19.35;13.05;;;32.10;93.70;;;;;;4197173;28;20586;-73
2022/04/23 10:41:29;;;;;;;20.17;13.20;;;32.00;93.70;;;;;;4194774;28;20053;-71
2022/04/23 10:43:35;;;;;;;18.67;14.02;;;32.10;93.80;;;;;;4185411;28;20072;-70
2022/04/23 10:45:42;;;;;;;23.98;14.85;;;32.10;93.80;;;;;;4192430;28;20049;-72
2022/04/23 10:47:46;;;;;;;20.08;14.95;;;32.10;93.90;;;;;;4198289;28;20082;-71
2022/04/23 10:49:51;;;;;;;19.95;15.10;;;32.20;93.80;;;;;;4193167;28;20554;-71
2022/04/23 10:51:59;;;;;;;21.38;14.52;;;32.10;93.90;;;;;;4184172;28;20595;-71
2022/04/23 10:54:04;;;;;;;17.52;14.57;;;32.20;94.00;;;;;;4197910;28;20063;-72
2022/04/23 10:56:15;;;;;;;22.70;16.02;;;32.10;94.10;;;;;;4195118;28;20044;-71
2022/04/23 10:58:26;;;;;;;20.48;15.25;;;32.20;94.20;;;;;;4191923;28;20117;-71
2022/04/23 11:00:31;;;;;;;24.00;15.85;;;32.10;94.30;;;;;;4198457;28;20048;-70
2022/04/23 11:02:39;;;;;;;39.90;24.10;;;32.10;94.40;;;;;;4177741;28;20053;-72
2022/04/23 11:12:20;;;;;;;37.05;24.85;;;32.00;96.90;;;;;;4194598;28;20565;-72
2022/04/23 11:14:45;;;;;;;44.90;25.90;;;31.90;97.10;;;;;;4191940;28;20047;-73
2022/04/23 11:16:55;;;;;;;36.22;26.05;;;31.90;97.00;;;;;;4190194;28;20041;-73
2022/04/23 11:19:01;;;;;;;35.13;25.23;;;31.90;97.10;;;;;;4192814;28;20041;-72
2022/04/23 11:21:10;;;;;;;40.83;26.58;;;31.90;97.40;;;;;;4195190;28;20206;-71
2022/04/23 11:23:19;;;;;;;38.28;24.25;;;31.90;97.30;;;;;;4175140;28;20090;-72
2022/04/23 11:25:24;;;;;;;36.70;24.88;;;31.80;97.30;;;;;;4183707;28;20362;-72
2022/04/23 11:27:36;;;;;;;38.47;24.65;;;31.80;97.30;;;;;;4191029;28;20081;-72
2022/04/23 11:29:51;;;;;;;33.58;23.20;;;31.80;97.40;;;;;;4200573;28;20041;-72
2022/04/23 11:31:57;;;;;;;26.85;21.17;;;31.70;97.40;;;;;;4199777;28;20125;-72
2022/04/23 11:34:03;;;;;;;28.65;20.33;;;31.70;97.30;;;;;;4196422;28;20029;-73
2022/04/23 11:36:11;;;;;;;27.88;20.60;;;31.70;97.10;;;;;;4194176;28;20057;-73